Time;durP1;ratioP1;P1;durP2;ratioP2;P2;SDS_P1;SDS_P2;PMS_P1;PMS_P2;Temp;Humidity;BMP_temperature;BMP_pressure;BME280_temperature;BME280_humidity;BME280_pressure;Samples;Min_cycle;Max_cycle;Signal;HPM_P1;HPM_P2
2023/12/01 00:02:25;;;;;;;;;39.50;36.25;;;;;7.79;75.71;99697.38;5098018;27;47070;-67
2023/12/01 00:04:51;;;;;;;;;39.25;34.75;;;;;7.79;75.73;99708.00;5099763;27;45388;-66
2023/12/01 00:07:17;;;;;;;;;32.50;27.50;;;;;7.79;75.93;99700.03;5095810;27;45373;-67
2023/12/01 00:09:42;;;;;;;;;34.25;31.25;;;;;7.63;76.46;99674.97;5099433;27;45547;-67
2023/12/01 00:12:08;;;;;;;;;42.25;36.75;;;;;7.79;76.15;99688.56;5099618;27;46214;-67
2023/12/01 00:14:33;;;;;;;;;46.00;38.75;;;;;7.77;75.92;99680.66;5098999;27;57796;-67
2023/12/01 00:16:58;;;;;;;;;37.00;34.00;;;;;7.91;76.55;99695.19;5099588;27;45313;-67
2023/12/01 00:19:24;;;;;;;;;33.50;31.25;;;;;7.91;76.08;99687.22;5098483;27;45416;-67
2023/12/01 00:21:49;;;;;;;;;34.50;30.75;;;;;7.91;76.17;99692.53;5099228;27;45523;-67
2023/12/01 00:24:15;;;;;;;;;40.25;33.50;;;;;7.89;75.84;99687.28;5099724;27;45412;-67
2023/12/01 00:26:41;;;;;;;;;37.25;34.00;;;;;7.92;76.00;99691.63;5098329;27;45285;-67
2023/12/01 00:29:06;;;;;;;;;38.75;33.00;;;;;7.84;76.01;99667.13;5099098;27;45575;-67
2023/12/01 00:31:31;;;;;;;;;33.25;29.00;;;;;7.97;76.21;99695.81;5098820;27;46074;-67
2023/12/01 00:33:59;;;;;;;;;40.25;35.25;;;;;7.96;75.94;99685.25;5099073;27;54999;-67
2023/12/01 00:36:24;;;;;;;;;42.00;35.25;;;;;8.02;76.18;99703.63;5095415;27;45364;-67
2023/12/01 00:38:50;;;;;;;;;34.75;34.00;;;;;7.95;76.02;99691.47;5097146;27;57806;-67
2023/12/01 00:41:16;;;;;;;;;40.50;34.25;;;;;7.96;76.30;99686.09;5092448;27;45562;-67
2023/12/01 00:43:41;;;;;;;;;38.50;29.75;;;;;8.04;76.22;99696.47;5099106;27;45347;-67
2023/12/01 00:46:07;;;;;;;;;48.25;39.75;;;;;8.02;76.14;99685.03;5099275;27;45290;-67
2023/12/01 00:48:32;;;;;;;;;38.00;34.25;;;;;8.16;76.23;99705.75;5099186;27;45470;-67
2023/12/01 00:50:57;;;;;;;;;34.25;30.25;;;;;8.14;76.11;99691.66;5098894;27;46089;-67
2023/12/01 00:53:23;;;;;;;;;34.25;26.50;;;;;8.13;75.87;99698.75;5093044;27;46018;-67
2023/12/01 00:55:48;;;;;;;;;34.25;29.50;;;;;8.19;75.89;99702.13;5089118;27;58574;-67
2023/12/01 00:58:13;;;;;;;;;41.50;36.50;;;;;8.27;76.32;99707.97;5100286;27;61215;-67
2023/12/01 01:00:40;;;;;;;;;36.00;32.00;;;;;8.21;75.75;99702.91;5101202;27;46985;-66
2023/12/01 01:03:06;;;;;;;;;52.75;38.75;;;;;8.15;75.72;99693.38;5087306;27;45785;-67
2023/12/01 01:05:31;;;;;;;;;37.50;32.50;;;;;8.15;75.57;99699.56;5095977;27;45441;-67
2023/12/01 01:07:56;;;;;;;;;39.00;37.25;;;;;8.16;75.73;99711.91;5088596;27;45310;-67
2023/12/01 01:10:22;;;;;;;;;40.75;33.50;;;;;8.20;75.65;99717.13;5102260;27;45376;-67
2023/12/01 01:12:47;;;;;;;;;41.50;35.75;;;;;8.25;76.00;99713.38;5102217;27;55868;-67
2023/12/01 01:15:12;;;;;;;;;44.25;36.50;;;;;8.12;76.12;99674.91;5102283;27;45389;-67
2023/12/01 01:17:38;;;;;;;;;38.75;35.00;;;;;8.21;75.52;99684.31;5101781;27;60800;-67
2023/12/01 01:20:04;;;;;;;;;36.25;34.75;;;;;8.15;75.91;99674.75;5100920;27;45397;-67
2023/12/01 01:22:29;;;;;;;;;33.25;30.25;;;;;8.31;75.66;99698.97;5102382;27;45354;-67
2023/12/01 01:24:55;;;;;;;;;35.50;32.75;;;;;8.35;75.57;99701.44;5087250;27;45495;-66
2023/12/01 01:27:21;;;;;;;;;43.25;36.75;;;;;8.42;75.56;99712.69;5100773;27;45595;-67
2023/12/01 07:07:30;;;;;;;;;55.25;44.50;;;;;5.37;84.06;99857.84;5098098;27;45364;-67
2023/12/01 07:09:56;;;;;;;;;51.25;41.50;;;;;5.57;83.59;99867.91;5076651;27;45537;-66
2023/12/01 07:12:22;;;;;;;;;46.75;42.00;;;;;5.63;83.29;99846.59;5085386;27;45511;-68
2023/12/01 07:14:48;;;;;;;;;52.50;42.00;;;;;5.82;82.79;99852.25;5084675;27;45562;-68
2023/12/01 07:17:14;;;;;;;;;53.75;44.75;;;;;6.00;82.06;99861.50;5084856;27;47044;-68
2023/12/01 07:19:40;;;;;;;;;54.25;44.50;;;;;5.87;81.87;99831.81;5087862;27;46011;-68
2023/12/01 07:22:06;;;;;;;;;56.50;42.25;;;;;6.14;81.86;99862.91;5094439;27;45457;-68
2023/12/01 07:24:31;;;;;;;;;55.00;41.50;;;;;6.25;81.34;99869.66;5084179;27;45521;-68
2023/12/01 07:26:57;;;;;;;;;56.50;42.50;;;;;6.24;80.99;99865.25;5087955;27;45376;-68
2023/12/01 07:29:22;;;;;;;;;55.00;39.75;;;;;6.37;80.43;99880.81;5093020;27;45427;-68
2023/12/01 07:31:47;;;;;;;;;60.25;46.00;;;;;6.34;80.46;99870.28;5082082;27;45443;-69
2023/12/01 07:34:12;;;;;;;;;48.25;41.50;;;;;6.32;80.17;99846.47;5075514;27;45637;-69
2023/12/01 07:36:39;;;;;;;;;50.00;40.00;;;;;6.40;80.31;99852.44;5084304;27;46984;-68
2023/12/01 07:39:04;;;;;;;;;43.00;32.00;;;;;6.48;80.53;99855.72;5087121;27;46121;-69
2023/12/01 07:41:31;;;;;;;;;54.50;42.50;;;;;6.76;80.18;99869.91;5079308;27;46449;-69
2023/12/01 07:43:57;;;;;;;;;53.25;41.50;;;;;6.74;79.86;99858.50;5082597;27;45441;-69
2023/12/01 07:46:22;;;;;;;;;46.00;38.25;;;;;6.90;79.48;99874.78;5080049;27;46288;-69
2023/12/01 07:48:48;;;;;;;;;47.75;39.25;;;;;6.98;79.24;99867.47;5083019;27;45430;-67
2023/12/01 07:51:14;;;;;;;;;53.75;43.50;;;;;6.97;78.95;99863.09;5084560;27;51101;-68
2023/12/01 07:53:39;;;;;;;;;46.50;40.75;;;;;6.93;78.50;99861.44;5086041;27;45448;-68
2023/12/01 07:56:05;;;;;;;;;49.75;40.25;;;;;6.97;78.87;99881.66;5078781;27;46093;-69
2023/12/01 07:58:30;;;;;;;;;48.75;38.50;;;;;6.81;78.43;99862.69;5082859;27;45456;-69
2023/12/01 08:00:57;;;;;;;;;47.67;42.67;;;;;6.78;78.19;99866.31;5083091;27;63449;-69
2023/12/01 08:03:23;;;;;;;;;43.25;34.75;;;;;6.78;78.11;99871.63;5083837;27;45431;-69
2023/12/01 08:05:48;;;;;;;;;46.50;36.25;;;;;6.89;78.26;99876.59;5082247;27;46300;-68
2023/12/01 08:08:14;;;;;;;;;53.75;43.25;;;;;6.89;77.79;99891.66;5063105;27;45433;-66
2023/12/01 08:10:39;;;;;;;;;50.50;42.50;;;;;6.76;78.02;99892.00;5066923;28;45497;-66
2023/12/01 08:13:08;;;;;;;;;57.00;43.50;;;;;6.81;78.46;99897.19;5067491;27;45559;-67
2023/12/01 08:15:33;;;;;;;;;51.25;41.25;;;;;6.78;77.94;99889.31;5062028;28;46280;-67
2023/12/01 08:17:59;;;;;;;;;45.50;38.75;;;;;6.82;78.01;99901.56;5078053;28;45497;-67
2023/12/01 08:20:25;;;;;;;;;49.75;40.25;;;;;6.80;78.32;99888.34;5067197;28;45326;-66
2023/12/01 08:22:50;;;;;;;;;51.75;42.50;;;;;6.77;77.39;99896.41;5070799;27;45464;-67
2023/12/01 08:25:17;;;;;;;;;31.25;28.25;;;;;6.79;78.29;99905.19;5065264;28;62201;-67
2023/12/01 08:27:42;;;;;;;;;53.25;38.00;;;;;6.73;77.59;99872.66;5066926;28;45451;-67
2023/12/01 08:30:08;;;;;;;;;52.50;42.00;;;;;6.97;77.65;99917.03;5067814;27;45449;-67
2023/12/01 08:32:34;;;;;;;;;47.75;38.75;;;;;6.95;76.85;99905.59;5080764;27;45482;-65
2023/12/01 08:35:00;;;;;;;;;57.00;42.00;;;;;6.83;76.89;99892.69;5068858;27;45788;-67
2023/12/01 08:37:25;;;;;;;;;55.00;42.75;;;;;6.98;77.42;99910.81;5069382;27;45426;-68
2023/12/01 08:39:51;;;;;;;;;42.25;38.00;;;;;6.97;76.79;99913.50;5078922;27;45462;-71
2023/12/01 08:42:18;;;;;;;;;41.00;32.50;;;;;6.89;76.28;99915.53;5065262;27;64735;-68
2023/12/01 08:44:43;;;;;;;;;46.00;38.00;;;;;6.80;76.30;99911.34;5073701;27;45970;-67
2023/12/01 08:47:09;;;;;;;;;45.00;37.75;;;;;6.71;76.64;99907.19;5073929;28;45314;-67
2023/12/01 08:49:35;;;;;;;;;50.75;40.25;;;;;6.68;76.20;99910.81;5070936;28;45372;-67
2023/12/01 08:52:01;;;;;;;;;44.75;37.00;;;;;6.73;76.34;99923.06;5079187;28;45500;-67
2023/12/01 08:54:26;;;;;;;;;46.75;37.25;;;;;6.72;76.22;99916.03;5070347;27;45389;-67
2023/12/01 08:56:53;;;;;;;;;48.75;40.25;;;;;6.66;76.73;99909.97;5075124;28;45316;-67
2023/12/01 08:59:18;;;;;;;;;47.75;41.25;;;;;6.54;76.52;99905.03;5071559;28;45512;-67
2023/12/01 09:01:44;;;;;;;;;39.50;34.25;;;;;6.46;76.35;99891.13;5061798;28;45551;-67
2023/12/01 09:04:09;;;;;;;;;44.25;41.00;;;;;6.48;76.72;99890.19;5069345;28;45719;-67
2023/12/01 09:06:36;;;;;;;;;43.50;38.75;;;;;6.59;76.55;99904.91;5080727;27;45920;-67
2023/12/01 09:09:02;;;;;;;;;51.50;41.75;;;;;6.50;76.17;99895.44;5068915;27;45464;-67
2023/12/01 09:11:27;;;;;;;;;55.25;41.00;;;;;6.60;77.31;99910.16;5073936;27;45459;-67
2023/12/01 09:13:52;;;;;;;;;52.75;43.25;;;;;6.64;76.65;99909.16;5076170;27;45447;-67
2023/12/01 09:16:20;;;;;;;;;56.25;42.25;;;;;6.67;76.45;99905.56;5064714;28;45444;-67
2023/12/01 09:18:45;;;;;;;;;50.50;44.00;;;;;6.66;76.46;99909.97;5077415;28;45367;-67
2023/12/01 09:21:11;;;;;;;;;53.00;44.50;;;;;6.49;76.18;99899.00;5070444;27;45460;-67
2023/12/01 09:23:40;;;;;;;;;53.50;42.50;;;;;6.61;76.21;99922.50;5059117;28;45334;-67
2023/12/01 09:26:06;;;;;;;;;58.25;42.75;;;;;6.42;76.24;99893.00;5060499;28;45439;-67
2023/12/01 09:28:32;;;;;;;;;53.50;44.25;;;;;6.63;76.31;99931.31;5076896;27;45450;-67
2023/12/01 09:30:58;;;;;;;;;56.50;44.25;;;;;6.60;76.37;99926.09;5058078;28;45691;-67
2023/12/01 09:33:23;;;;;;;;;51.75;40.25;;;;;6.43;76.22;99891.22;5068852;28;47971;-67
2023/12/01 09:35:48;;;;;;;;;55.00;41.75;;;;;6.65;76.50;99931.25;5058968;28;54515;-67
2023/12/01 09:38:14;;;;;;;;;55.75;44.25;;;;;6.68;76.03;99939.09;5060869;28;45507;-67
2023/12/01 09:40:43;;;;;;;;;60.00;46.00;;;;;6.68;75.72;99952.34;5069918;27;45352;-67
2023/12/01 09:43:11;;;;;;;;;50.25;37.75;;;;;6.65;75.83;99934.78;5068632;28;45920;-67
2023/12/01 09:45:36;;;;;;;;;58.25;43.25;;;;;6.58;76.50;99913.78;5063044;27;45507;-67
2023/12/01 09:48:05;;;;;;;;;53.75;43.75;;;;;6.70;75.60;99945.25;5068356;28;45575;-66
2023/12/01 09:50:31;;;;;;;;;58.75;45.75;;;;;6.70;75.89;99947.91;5067557;27;45342;-67
2023/12/01 09:52:56;;;;;;;;;48.25;42.00;;;;;6.74;76.17;99965.44;5058180;28;45991;-67
2023/12/01 09:55:21;;;;;;;;;48.75;42.00;;;;;6.73;75.84;99976.09;5070328;28;45295;-66
2023/12/01 09:57:47;;;;;;;;;55.50;43.75;;;;;6.68;75.38;99965.63;5077064;28;45368;-68
2023/12/01 10:00:13;;;;;;;;;48.75;41.00;;;;;6.68;75.67;99957.66;5068316;27;45485;-67
2023/12/01 10:02:39;;;;;;;;;53.00;44.50;;;;;6.72;75.31;99980.56;5058249;28;47337;-66
2023/12/01 10:05:06;;;;;;;;;58.75;43.50;;;;;6.74;75.81;99986.69;5070998;28;45780;-67
2023/12/01 10:07:32;;;;;;;;;51.00;41.50;;;;;6.67;75.74;99978.03;5075426;27;45567;-68
2023/12/01 10:09:57;;;;;;;;;58.00;43.00;;;;;6.82;75.94;99997.94;5072365;28;45457;-67
2023/12/01 10:12:23;;;;;;;;;57.75;43.75;;;;;6.84;75.56;99984.63;5081704;27;45399;-68
2023/12/01 10:14:49;;;;;;;;;62.67;45.67;;;;;6.88;75.59;99980.09;5087714;27;68553;-66
2023/12/01 10:17:14;;;;;;;;;60.50;45.00;;;;;6.90;75.68;99980.91;5078150;28;45477;-67
2023/12/01 10:19:45;;;;;;;;;53.75;42.75;;;;;7.00;75.62;99987.69;5077742;27;45323;-67
2023/12/01 10:22:13;;;;;;;;;44.75;40.25;;;;;7.05;74.89;99985.78;5072885;28;47992;-67
2023/12/01 10:24:38;;;;;;;;;57.25;41.50;;;;;6.90;75.27;99971.19;5062032;28;45450;-67
2023/12/01 10:27:05;;;;;;;;;58.75;43.25;;;;;7.02;74.92;99994.69;5090709;27;45400;-67
2023/12/01 10:29:34;;;;;;;;;50.75;40.75;;;;;6.96;75.27;99986.06;5067461;28;45397;-67
2023/12/01 10:32:00;;;;;;;;;49.75;38.75;;;;;7.17;75.65;100008.44;5058244;28;45490;-67
2023/12/01 10:34:26;;;;;;;;;52.50;40.75;;;;;7.17;74.59;100001.34;5059313;28;45456;-67
2023/12/01 10:36:52;;;;;;;;;59.50;46.25;;;;;7.05;75.26;99970.72;5072452;28;45556;-68
2023/12/01 10:39:24;;;;;;;;;58.75;41.50;;;;;7.30;74.69;100008.91;5074032;28;45681;-67
2023/12/01 10:41:50;;;;;;;;;59.00;48.50;;;;;7.21;75.12;99987.03;5070343;28;45789;-67
2023/12/01 10:44:18;;;;;;;;;50.50;41.25;;;;;7.27;74.50;99991.31;5058582;28;45468;-67
2023/12/01 10:46:47;;;;;;;;;52.50;42.25;;;;;7.36;74.44;100001.63;5064210;28;45384;-67
2023/12/01 10:49:17;;;;;;;;;52.25;40.75;;;;;7.14;73.53;99968.72;5064503;27;45417;-67
2023/12/01 10:51:43;;;;;;;;;51.50;40.25;;;;;7.22;73.95;99993.25;5072301;28;46524;-67
2023/12/01 10:54:10;;;;;;;;;50.50;39.75;;;;;7.05;73.84;99975.19;5072926;28;45436;-67
2023/12/01 10:56:48;;;;;;;;;52.00;42.50;;;;;7.15;73.80;99983.69;5074107;27;45440;-67
2023/12/01 10:59:19;;;;;;;;;50.25;43.50;;;;;7.15;74.05;99987.25;5067574;28;45340;-67
2023/12/01 11:01:52;;;;;;;;;45.25;39.25;;;;;7.29;74.02;100010.72;5074984;28;47033;-67
2023/12/01 11:04:26;;;;;;;;;50.75;41.75;;;;;7.29;73.80;99997.44;5071615;27;45387;-67
2023/12/01 11:07:19;;;;;;;;;45.75;38.00;;;;;7.26;73.13;100004.63;5075982;28;45534;-67
2023/12/01 11:10:11;;;;;;;;;58.75;43.75;;;;;7.24;73.26;100002.03;5076918;28;45477;-67
2023/12/01 11:12:54;;;;;;;;;49.25;40.75;;;;;7.15;73.65;99999.63;5069940;28;47156;-67
2023/12/01 11:15:27;;;;;;;;;47.75;41.75;;;;;7.05;73.78;99978.69;5057366;28;45390;-67
2023/12/01 11:17:54;;;;;;;;;51.75;43.00;;;;;7.09;73.29;99983.91;5057168;28;45459;-67
2023/12/01 11:20:40;;;;;;;;;55.25;43.75;;;;;7.16;73.42;99982.81;5074675;28;45504;-67
2023/12/01 11:23:09;;;;;;;;;53.25;42.00;;;;;7.26;74.17;99994.00;5088323;27;45477;-67
2023/12/01 11:25:42;;;;;;;;;61.75;47.75;;;;;7.22;73.86;99985.28;5076306;27;47163;-67
2023/12/01 11:31:28;;;;;;;;;57.25;43.75;;;;;7.15;72.78;99968.66;5057126;28;45428;-67
2023/12/01 11:33:56;;;;;;;;;58.50;45.50;;;;;7.10;72.64;99967.94;5058608;28;47257;-67
2023/12/01 11:36:32;;;;;;;;;52.00;41.50;;;;;7.02;72.86;99962.84;5063442;28;45666;-67
2023/12/01 11:39:16;;;;;;;;;55.00;42.25;;;;;7.16;72.86;99978.34;5074489;28;45291;-67
2023/12/01 11:41:41;;;;;;;;;56.00;44.25;;;;;7.20;72.84;99979.13;5075425;28;45908;-67
2023/12/01 11:44:26;;;;;;;;;49.33;40.33;;;;;7.13;72.49;99962.50;5079760;28;46307;-67
2023/12/01 11:46:55;;;;;;;;;51.00;43.50;;;;;7.10;72.94;99967.06;5080015;27;45471;-67
2023/12/01 11:49:22;;;;;;;;;51.00;40.50;;;;;7.11;72.76;99966.16;5074757;27;45539;-66
2023/12/01 11:51:49;;;;;;;;;49.25;40.00;;;;;6.94;72.80;99950.75;5081323;28;45575;-65
2023/12/01 11:54:15;;;;;;;;;54.50;42.25;;;;;6.89;72.78;99937.59;5067230;27;45630;-67
2023/12/01 11:56:46;;;;;;;;;53.00;40.25;;;;;7.10;72.44;99957.31;5090957;27;45547;-67
2023/12/01 11:59:11;;;;;;;;;46.50;40.00;;;;;7.15;72.46;99970.44;5074607;27;45478;-68
2023/12/01 12:01:37;;;;;;;;;48.25;40.75;;;;;7.05;72.78;99954.81;5071447;27;48061;-68
2023/12/01 12:04:04;;;;;;;;;47.50;38.00;;;;;7.10;72.52;99962.63;5068637;27;45945;-67
2023/12/01 12:06:32;;;;;;;;;50.50;38.00;;;;;6.84;72.11;99929.78;5070590;27;45619;-68
2023/12/01 12:08:58;;;;;;;;;36.50;30.00;;;;;6.95;72.27;99968.38;5073406;27;45670;-67
2023/12/01 12:11:24;;;;;;;;;38.00;33.75;;;;;6.75;72.77;99939.78;5074953;27;45801;-67
2023/12/01 12:13:54;;;;;;;;;42.75;40.25;;;;;6.79;72.34;99955.56;5074998;27;47090;-69
2023/12/01 12:16:23;;;;;;;;;38.00;31.25;;;;;6.67;72.76;99940.03;5076529;27;45587;-68
2023/12/01 12:18:49;;;;;;;;;41.50;34.75;;;;;6.77;72.33;99961.84;5075831;27;45543;-67
2023/12/01 12:21:15;;;;;;;;;38.25;32.50;;;;;6.67;72.16;99953.28;5070158;27;45401;-67
2023/12/01 12:23:40;;;;;;;;;49.25;38.00;;;;;6.67;72.91;99963.91;5064844;27;45562;-67
2023/12/01 12:26:20;;;;;;;;;53.75;42.00;;;;;6.69;72.56;99964.72;5061123;27;45571;-68
2023/12/01 12:29:05;;;;;;;;;50.50;40.75;;;;;6.74;72.90;99972.56;5071037;27;45475;-67
2023/12/01 12:31:38;;;;;;;;;43.50;38.00;;;;;6.57;72.64;99957.13;5074711;27;45550;-69
2023/12/01 12:34:08;;;;;;;;;43.50;38.00;;;;;6.63;72.57;99979.03;5071854;27;46187;-68
2023/12/01 12:36:35;;;;;;;;;43.00;35.25;;;;;6.53;72.75;99974.88;5070082;27;45836;-68
2023/12/01 12:39:16;;;;;;;;;43.00;36.00;;;;;6.58;73.08;99975.66;5062297;27;45502;-68
2023/12/01 12:41:49;;;;;;;;;52.75;40.25;;;;;6.60;72.63;99963.22;5065892;27;45725;-68
2023/12/01 12:44:15;;;;;;;;;38.75;33.00;;;;;6.63;72.71;99965.78;5073245;27;46270;-68
2023/12/01 12:46:40;;;;;;;;;45.50;38.25;;;;;6.54;72.77;99947.47;5071807;27;45920;-68
2023/12/01 12:49:10;;;;;;;;;50.00;41.50;;;;;6.54;72.69;99942.16;5070183;27;45549;-69
2023/12/01 12:51:36;;;;;;;;;44.25;39.25;;;;;6.72;73.01;99966.44;5070289;27;45571;-69
2023/12/01 12:54:03;;;;;;;;;40.25;32.75;;;;;6.75;72.18;99974.28;5073660;28;47012;-68
2023/12/01 12:56:29;;;;;;;;;38.25;37.00;;;;;6.69;72.06;99970.03;5072732;28;45467;-68
2023/12/01 12:58:57;;;;;;;;;39.00;35.00;;;;;6.66;72.47;99956.84;5071859;28;45639;-70
2023/12/01 13:01:23;;;;;;;;;38.75;34.25;;;;;6.51;71.52;99949.34;5067812;27;46657;-67
2023/12/01 13:03:48;;;;;;;;;38.00;35.50;;;;;6.56;71.95;99971.28;5074156;27;45441;-68
2023/12/01 13:06:15;;;;;;;;;52.50;41.75;;;;;6.50;71.93;99953.78;5059377;28;45508;-67
2023/12/01 13:08:41;;;;;;;;;43.00;38.00;;;;;6.43;71.83;99937.19;5070180;27;45470;-67
2023/12/01 13:11:08;;;;;;;;;50.50;41.75;;;;;6.50;72.65;99948.47;5069238;27;45448;-68
2023/12/01 13:13:35;;;;;;;;;37.00;29.00;;;;;6.37;71.96;99925.88;5075411;27;45794;-68
2023/12/01 13:16:02;;;;;;;;;42.75;37.00;;;;;6.71;71.98;99969.97;5068664;28;45618;-68
2023/12/01 13:18:27;;;;;;;;;41.75;32.75;;;;;6.67;71.59;99955.94;5070531;27;45526;-67
2023/12/01 13:20:53;;;;;;;;;50.00;41.75;;;;;6.62;71.76;99964.03;5071198;27;45536;-68
2023/12/01 13:23:19;;;;;;;;;41.50;34.50;;;;;6.54;71.97;99950.13;5071485;27;56049;-68
2023/12/01 13:25:45;;;;;;;;;46.75;37.00;;;;;6.68;72.15;99970.94;5064719;27;45485;-68
2023/12/01 13:28:13;;;;;;;;;56.50;40.50;;;;;6.64;71.61;99961.34;5065268;27;45616;-68
2023/12/01 13:30:39;;;;;;;;;51.25;39.00;;;;;6.55;71.55;99961.56;5065966;27;45531;-68
2023/12/01 13:33:06;;;;;;;;;58.50;40.75;;;;;6.52;71.45;99956.38;5074554;27;47258;-68
2023/12/01 13:35:38;;;;;;;;;52.75;41.50;;;;;6.53;71.80;99961.63;5072080;27;45540;-68
2023/12/01 13:38:04;;;;;;;;;41.00;36.75;;;;;6.65;71.66;99973.69;5058793;27;45618;-68
2023/12/01 13:40:30;;;;;;;;;35.50;32.25;;;;;6.60;71.73;99959.66;5062068;27;45464;-68
2023/12/01 13:42:56;;;;;;;;;42.00;37.75;;;;;6.59;71.42;99961.47;5065448;28;46055;-67
2023/12/01 13:45:22;;;;;;;;;40.00;31.50;;;;;6.65;71.45;99968.38;5068054;28;45729;-67
2023/12/01 13:47:48;;;;;;;;;46.50;39.00;;;;;6.76;71.32;99979.53;5074699;27;45491;-66
2023/12/01 13:50:13;;;;;;;;;42.75;34.00;;;;;6.66;71.07;99980.72;5074885;28;45355;-67
2023/12/01 13:52:39;;;;;;;;;47.00;39.25;;;;;6.53;71.30;99966.94;5074544;28;50707;-67
2023/12/01 13:55:05;;;;;;;;;50.00;41.25;;;;;6.63;71.96;99976.38;5068297;28;45661;-68
2023/12/01 13:57:33;;;;;;;;;39.50;35.50;;;;;6.62;71.32;99969.34;5068431;28;45786;-67
2023/12/01 13:59:59;;;;;;;;;30.00;24.75;;;;;6.64;71.12;99979.91;5071296;27;46646;-68
2023/12/01 14:02:24;;;;;;;;;42.75;34.50;;;;;6.72;71.62;100007.06;5061309;27;45504;-67
2023/12/01 14:04:49;;;;;;;;;44.75;38.00;;;;;6.74;70.99;100005.25;5071521;28;45514;-68
2023/12/01 14:07:14;;;;;;;;;30.50;24.00;;;;;6.72;70.79;99995.59;5070256;28;48656;-67
2023/12/01 14:09:40;;;;;;;;;35.00;29.75;;;;;6.65;70.28;99986.94;5067438;28;53086;-68
2023/12/01 14:12:06;;;;;;;;;32.25;29.50;;;;;6.65;70.15;100003.72;5066519;28;65686;-67
2023/12/01 14:14:32;;;;;;;;;36.50;32.00;;;;;6.54;70.48;99997.84;5058723;28;45670;-67
2023/12/01 14:16:57;;;;;;;;;34.50;29.00;;;;;6.57;70.13;100003.06;5065893;27;45615;-68
2023/12/01 14:19:24;;;;;;;;;36.00;30.25;;;;;6.53;69.98;100006.69;5074815;27;45409;-68
2023/12/01 14:21:50;;;;;;;;;37.25;32.50;;;;;6.46;69.43;99998.03;5070049;28;46321;-67
2023/12/01 14:24:15;;;;;;;;;27.50;25.25;;;;;6.41;69.36;100005.25;5065777;28;45751;-68
2023/12/01 14:26:41;;;;;;;;;41.25;37.25;;;;;6.42;69.83;100004.34;5068072;28;45576;-67
2023/12/01 14:29:07;;;;;;;;;34.50;31.50;;;;;6.48;70.06;100016.56;5066721;28;45534;-67
2023/12/01 14:31:32;;;;;;;;;36.50;33.50;;;;;6.43;70.11;100006.09;5073001;28;46385;-68
2023/12/01 14:33:58;;;;;;;;;40.00;33.50;;;;;6.50;69.64;100022.72;5072671;27;45696;-68
2023/12/01 14:36:24;;;;;;;;;36.50;31.00;;;;;6.43;69.96;100002.56;5067236;28;45655;-68
2023/12/01 14:38:51;;;;;;;;;38.00;36.50;;;;;6.48;69.72;100016.56;5074522;27;45575;-68
2023/12/01 14:41:16;;;;;;;;;37.75;32.75;;;;;6.37;69.81;99987.72;5063897;28;48106;-67
2023/12/01 14:43:42;;;;;;;;;37.00;33.50;;;;;6.58;69.51;100011.88;5068932;28;45500;-67
2023/12/01 14:46:07;;;;;;;;;37.50;30.50;;;;;6.61;69.86;100010.00;5064283;27;45461;-67
2023/12/01 14:48:33;;;;;;;;;40.25;34.50;;;;;6.53;69.79;100001.41;5062156;27;45413;-67
2023/12/01 14:50:58;;;;;;;;;38.75;30.50;;;;;6.70;69.39;100038.09;5056501;28;46461;-68
2023/12/01 14:53:23;;;;;;;;;36.75;30.25;;;;;6.61;69.20;100028.56;5075412;27;45381;-68
2023/12/01 14:55:48;;;;;;;;;35.75;31.75;;;;;6.58;69.30;100035.75;5070912;27;45502;-67
2023/12/01 14:58:14;;;;;;;;;28.25;25.75;;;;;6.47;69.50;100021.00;5070053;28;52064;-67
2023/12/01 15:00:40;;;;;;;;;36.50;31.25;;;;;6.51;68.93;100028.88;5065481;28;46084;-67
2023/12/01 15:03:05;;;;;;;;;33.25;30.50;;;;;6.50;69.21;100038.63;5063813;28;45595;-68
2023/12/01 15:05:30;;;;;;;;;35.25;26.00;;;;;6.33;68.00;100046.13;5067857;28;45623;-67
2023/12/01 15:07:56;;;;;;;;;37.00;27.50;;;;;6.23;68.96;100053.44;5075892;28;46024;-68
2023/12/01 15:10:22;;;;;;;;;21.25;19.75;;;;;6.24;69.24;100045.47;5075733;28;47286;-67
2023/12/01 15:12:48;;;;;;;;;38.25;31.25;;;;;6.32;69.04;100047.06;5092770;27;45409;-67
2023/12/01 15:15:13;;;;;;;;;32.25;27.50;;;;;6.39;69.09;100054.81;5069615;27;45440;-67
2023/12/01 15:17:39;;;;;;;;;25.00;23.75;;;;;6.39;68.25;100060.09;5078196;27;45420;-68
2023/12/01 15:20:05;;;;;;;;;36.75;31.25;;;;;6.37;68.92;100072.53;5074989;27;46082;-68
2023/12/01 15:22:30;;;;;;;;;33.75;29.00;;;;;6.32;69.01;100057.66;5062883;28;45715;-67
2023/12/01 15:24:56;;;;;;;;;29.75;24.50;;;;;6.38;68.30;100066.34;5067414;27;45447;-67
2023/12/01 15:27:21;;;;;;;;;33.00;31.00;;;;;6.36;68.70;100073.44;5079521;28;45553;-68
2023/12/01 15:29:47;;;;;;;;;33.25;27.00;;;;;6.34;68.55;100066.44;5080585;27;46288;-67
2023/12/01 15:32:13;;;;;;;;;33.25;30.50;;;;;6.44;68.30;100089.16;5076744;27;45725;-67
2023/12/01 15:34:38;;;;;;;;;28.00;24.75;;;;;6.47;68.51;100074.03;5080981;27;45272;-67
2023/12/01 15:37:03;;;;;;;;;41.25;30.25;;;;;6.49;67.91;100076.66;5074610;28;48729;-67
2023/12/01 15:39:28;;;;;;;;;36.75;29.50;;;;;6.32;67.90;100060.31;5079604;27;48464;-67
2023/12/01 15:41:54;;;;;;;;;32.50;29.25;;;;;6.34;68.16;100071.75;5074399;28;59862;-67
2023/12/01 15:44:19;;;;;;;;;30.00;26.50;;;;;6.33;67.80;100062.91;5070089;28;45428;-67
2023/12/01 15:46:45;;;;;;;;;32.50;31.00;;;;;6.40;67.57;100079.53;5083731;27;61510;-67
2023/12/01 15:49:11;;;;;;;;;34.25;26.25;;;;;6.40;67.40;100092.78;5078323;27;46938;-67
2023/12/01 15:51:36;;;;;;;;;28.25;26.25;;;;;6.35;66.79;100095.56;5080985;28;45385;-67
2023/12/01 15:54:01;;;;;;;;;33.75;25.25;;;;;6.20;66.87;100080.91;5074099;27;45557;-68
2023/12/01 15:56:26;;;;;;;;;26.50;22.75;;;;;6.20;66.52;100101.22;5068796;28;45597;-67
2023/12/01 15:58:55;;;;;;;;;31.50;23.75;;;;;5.98;66.44;100077.94;5075992;27;56196;-67
2023/12/01 16:01:21;;;;;;;;;27.00;26.00;;;;;6.03;66.73;100104.28;5075164;28;45890;-67
2023/12/01 16:03:46;;;;;;;;;33.00;27.75;;;;;6.01;66.90;100108.75;5068857;28;45427;-67
2023/12/01 16:06:11;;;;;;;;;36.00;35.00;;;;;5.88;67.11;100086.94;5062032;27;45295;-67
2023/12/01 16:08:37;;;;;;;;;33.00;31.00;;;;;5.89;66.78;100092.22;5070639;28;45330;-67
2023/12/01 16:11:03;;;;;;;;;38.75;34.50;;;;;6.02;67.02;100111.38;5077953;28;45561;-67
2023/12/01 16:13:28;;;;;;;;;37.75;29.25;;;;;5.76;67.70;100074.88;5071330;28;45381;-67
2023/12/01 16:15:53;;;;;;;;;27.00;25.25;;;;;5.67;66.49;100083.91;5076052;28;46392;-68
2023/12/01 16:18:23;;;;;;;;;35.75;29.50;;;;;5.92;66.75;100131.03;5067964;28;46238;-67
2023/12/01 16:20:48;;;;;;;;;30.00;25.25;;;;;5.87;67.03;100122.31;5076693;27;45855;-67
2023/12/01 16:23:13;;;;;;;;;33.00;28.25;;;;;5.85;66.44;100124.13;5079671;27;45665;-67
2023/12/01 16:25:39;;;;;;;;;27.75;26.25;;;;;5.75;66.46;100112.88;5074044;28;45484;-67
2023/12/01 16:28:05;;;;;;;;;31.00;25.00;;;;;5.84;66.19;100130.31;5066243;27;45440;-67
2023/12/01 16:30:30;;;;;;;;;38.25;29.00;;;;;5.79;66.30;100119.81;5075795;28;46005;-67
2023/12/01 16:32:55;;;;;;;;;34.50;28.25;;;;;5.87;66.52;100127.59;5064445;28;45492;-67
2023/12/01 16:35:21;;;;;;;;;36.25;26.00;;;;;5.93;65.61;100140.69;5063524;28;52300;-67
2023/12/01 16:37:47;;;;;;;;;26.50;26.00;;;;;5.77;65.63;100126.94;5062720;28;45876;-67
2023/12/01 16:40:12;;;;;;;;;27.25;21.50;;;;;5.57;65.93;100092.97;5078530;27;45777;-67
2023/12/01 16:42:38;;;;;;;;;27.75;26.75;;;;;5.67;65.56;100113.03;5075678;27;45558;-67
2023/12/01 16:45:03;;;;;;;;;22.25;19.25;;;;;5.75;65.31;100140.22;5066267;27;45368;-67
2023/12/01 16:47:29;;;;;;;;;27.75;26.00;;;;;5.63;64.93;100137.84;5059090;28;46507;-67
2023/12/01 16:49:55;;;;;;;;;29.00;27.25;;;;;5.61;65.25;100126.41;5067055;28;45280;-67
2023/12/01 16:52:21;;;;;;;;;36.00;27.25;;;;;5.62;64.56;100140.53;5074725;28;45402;-67
2023/12/01 16:54:46;;;;;;;;;27.75;23.25;;;;;5.41;64.23;100116.22;5075806;28;45436;-67
2023/12/01 16:57:11;;;;;;;;;24.50;23.25;;;;;5.48;65.04;100141.69;5067451;27;45422;-67
2023/12/01 16:59:37;;;;;;;;;30.50;28.25;;;;;5.40;65.29;100130.38;5073205;27;45463;-67
2023/12/01 17:02:02;;;;;;;;;39.75;35.75;;;;;5.38;65.60;100133.06;5061116;28;45528;-67